sensor_id;sensor_type;location;lat;lon;timestamp;pressure;altitude;pressure_sealevel;temperature;humidity
61014;BME280;46899;47.542;19.082;2023-01-30T00:00:45;101093.06;;;-3.64;100.00
61014;BME280;46899;47.542;19.082;2023-01-30T00:03:48;101091.53;;;-3.61;100.00
61014;BME280;46899;47.542;19.082;2023-01-30T00:06:50;101090.53;;;-3.64;100.00
61014;BME280;46899;47.542;19.082;2023-01-30T00:09:53;101086.16;;;-3.68;100.00
61014;BME280;46899;47.542;19.082;2023-01-30T00:12:55;101091.97;;;-3.72;100.00
61014;BME280;46899;47.542;19.082;2023-01-30T00:15:58;101087.31;;;-3.84;100.00
61014;BME280;46899;47.542;19.082;2023-01-30T00:19:01;101084.84;;;-3.82;100.00
61014;BME280;46899;47.542;19.082;2023-01-30T00:22:04;101082.06;;;-3.88;100.00
61014;BME280;46899;47.542;19.082;2023-01-30T00:25:06;101080.34;;;-3.89;100.00
61014;BME280;46899;47.542;19.082;2023-01-30T00:28:09;101077.22;;;-3.82;100.00
61014;BME280;46899;47.542;19.082;2023-01-30T00:31:11;101077.56;;;-3.72;100.00
61014;BME280;46899;47.542;19.082;2023-01-30T00:34:14;101072.94;;;-3.83;100.00
61014;BME280;46899;47.542;19.082;2023-01-30T00:37:16;101077.69;;;-3.92;100.00
61014;BME280;46899;47.542;19.082;2023-01-30T00:40:19;101070.34;;;-4.08;100.00
61014;BME280;46899;47.542;19.082;2023-01-30T00:43:22;101066.69;;;-4.17;100.00
61014;BME280;46899;47.542;19.082;2023-01-30T00:46:43;101070.25;;;-4.11;100.00
61014;BME280;46899;47.542;19.082;2023-01-30T00:50:04;101079.44;;;-4.15;100.00
61014;BME280;46899;47.542;19.082;2023-01-30T00:53:08;101068.63;;;-4.09;100.00
61014;BME280;46899;47.542;19.082;2023-01-30T00:56:12;101059.16;;;-4.13;100.00
61014;BME280;46899;47.542;19.082;2023-01-30T00:59:15;101067.37;;;-4.21;100.00
61014;BME280;46899;47.542;19.082;2023-01-30T01:02:19;101057.06;;;-4.01;100.00
61014;BME280;46899;47.542;19.082;2023-01-30T01:05:22;101050.16;;;-4.05;100.00
61014;BME280;46899;47.542;19.082;2023-01-30T01:08:25;101056.91;;;-4.06;100.00
61014;BME280;46899;47.542;19.082;2023-01-30T01:11:27;101047.75;;;-4.01;100.00
61014;BME280;46899;47.542;19.082;2023-01-30T01:14:30;101043.22;;;-4.09;100.00
61014;BME280;46899;47.542;19.082;2023-01-30T01:17:33;101042.97;;;-4.17;100.00
61014;BME280;46899;47.542;19.082;2023-01-30T01:20:35;101038.72;;;-4.17;100.00
61014;BME280;46899;47.542;19.082;2023-01-30T01:23:38;101037.34;;;-4.08;100.00
61014;BME280;46899;47.542;19.082;2023-01-30T01:26:41;101029.16;;;-4.24;100.00
61014;BME280;46899;47.542;19.082;2023-01-30T01:29:45;101028.41;;;-4.21;100.00
61014;BME280;46899;47.542;19.082;2023-01-30T01:32:49;101021.97;;;-4.11;100.00
61014;BME280;46899;47.542;19.082;2023-01-30T01:35:55;101023.03;;;-4.05;100.00
61014;BME280;46899;47.542;19.082;2023-01-30T01:38:58;101020.91;;;-3.93;100.00
61014;BME280;46899;47.542;19.082;2023-01-30T01:42:00;101014.16;;;-3.92;100.00
61014;BME280;46899;47.542;19.082;2023-01-30T01:48:15;101005.31;;;-3.78;100.00
61014;BME280;46899;47.542;19.082;2023-01-30T01:54:44;101004.59;;;-3.74;100.00
61014;BME280;46899;47.542;19.082;2023-01-30T02:01:17;100988.44;;;-3.76;100.00
61014;BME280;46899;47.542;19.082;2023-01-30T02:04:20;100977.19;;;-3.84;100.00
61014;BME280;46899;47.542;19.082;2023-01-30T02:08:05;100978.47;;;-3.95;100.00
61014;BME280;46899;47.542;19.082;2023-01-30T02:11:08;100971.72;;;-3.95;100.00
61014;BME280;46899;47.542;19.082;2023-01-30T02:14:11;100958.41;;;-4.14;100.00
61014;BME280;46899;47.542;19.082;2023-01-30T02:17:15;100960.59;;;-4.24;100.00
61014;BME280;46899;47.542;19.082;2023-01-30T02:27:48;100952.37;;;-4.42;100.00
61014;BME280;46899;47.542;19.082;2023-01-30T02:36:59;100946.25;;;-4.47;100.00
61014;BME280;46899;47.542;19.082;2023-01-30T02:43:19;100935.94;;;-4.51;100.00
61014;BME280;46899;47.542;19.082;2023-01-30T02:46:27;100922.47;;;-4.50;100.00
61014;BME280;46899;47.542;19.082;2023-01-30T02:49:46;100922.22;;;-4.56;100.00
61014;BME280;46899;47.542;19.082;2023-01-30T02:52:49;100910.69;;;-4.72;100.00
61014;BME280;46899;47.542;19.082;2023-01-30T02:55:52;100913.50;;;-4.64;100.00
61014;BME280;46899;47.542;19.082;2023-01-30T02:59:00;100902.47;;;-4.65;100.00
61014;BME280;46899;47.542;19.082;2023-01-30T03:08:24;100892.62;;;-4.81;100.00
61014;BME280;46899;47.542;19.082;2023-01-30T03:11:43;100896.44;;;-4.92;100.00
61014;BME280;46899;47.542;19.082;2023-01-30T03:17:54;100887.09;;;-4.93;100.00
61014;BME280;46899;47.542;19.082;2023-01-30T03:21:02;100885.94;;;-5.01;100.00
61014;BME280;46899;47.542;19.082;2023-01-30T03:24:05;100883.69;;;-4.94;100.00
61014;BME280;46899;47.542;19.082;2023-01-30T03:27:09;100887.22;;;-4.90;100.00
61014;BME280;46899;47.542;19.082;2023-01-30T03:30:12;100882.75;;;-4.97;100.00
61014;BME280;46899;47.542;19.082;2023-01-30T03:33:15;100881.75;;;-5.01;100.00
61014;BME280;46899;47.542;19.082;2023-01-30T03:36:20;100876.38;;;-4.86;100.00
61014;BME280;46899;47.542;19.082;2023-01-30T03:39:23;100864.69;;;-4.57;100.00
61014;BME280;46899;47.542;19.082;2023-01-30T03:42:26;100863.81;;;-4.58;100.00
61014;BME280;46899;47.542;19.082;2023-01-30T03:45:29;100870.06;;;-4.48;100.00
61014;BME280;46899;47.542;19.082;2023-01-30T03:48:32;100865.09;;;-4.45;100.00
61014;BME280;46899;47.542;19.082;2023-01-30T03:51:35;100862.22;;;-4.29;100.00
61014;BME280;46899;47.542;19.082;2023-01-30T03:54:37;100872.94;;;-4.38;100.00
61014;BME280;46899;47.542;19.082;2023-01-30T03:57:40;100872.13;;;-4.37;100.00
61014;BME280;46899;47.542;19.082;2023-01-30T04:00:44;100856.69;;;-4.43;100.00
61014;BME280;46899;47.542;19.082;2023-01-30T04:03:47;100859.91;;;-4.48;100.00
61014;BME280;46899;47.542;19.082;2023-01-30T04:06:49;100862.22;;;-4.54;100.00
61014;BME280;46899;47.542;19.082;2023-01-30T04:09:53;100856.75;;;-4.66;100.00
61014;BME280;46899;47.542;19.082;2023-01-30T04:12:55;100853.34;;;-4.67;100.00
61014;BME280;46899;47.542;19.082;2023-01-30T04:16:14;100842.97;;;-4.73;100.00
61014;BME280;46899;47.542;19.082;2023-01-30T04:19:23;100848.50;;;-4.85;100.00
61014;BME280;46899;47.542;19.082;2023-01-30T04:22:26;100843.97;;;-4.93;100.00
61014;BME280;46899;47.542;19.082;2023-01-30T04:25:28;100849.91;;;-4.93;100.00
61014;BME280;46899;47.542;19.082;2023-01-30T04:28:31;100834.84;;;-4.88;100.00
61014;BME280;46899;47.542;19.082;2023-01-30T04:31:34;100841.44;;;-4.93;100.00
61014;BME280;46899;47.542;19.082;2023-01-30T04:34:38;100829.41;;;-4.99;100.00
61014;BME280;46899;47.542;19.082;2023-01-30T04:37:40;100836.22;;;-4.98;100.00
61014;BME280;46899;47.542;19.082;2023-01-30T04:40:47;100825.94;;;-5.01;100.00
61014;BME280;46899;47.542;19.082;2023-01-30T04:43:49;100817.16;;;-5.10;100.00
61014;BME280;46899;47.542;19.082;2023-01-30T04:46:52;100816.25;;;-5.12;100.00
61014;BME280;46899;47.542;19.082;2023-01-30T04:49:56;100807.69;;;-5.16;100.00
61014;BME280;46899;47.542;19.082;2023-01-30T04:52:59;100804.16;;;-5.19;100.00
61014;BME280;46899;47.542;19.082;2023-01-30T04:56:02;100804.03;;;-5.22;100.00
61014;BME280;46899;47.542;19.082;2023-01-30T04:59:05;100809.78;;;-5.28;100.00
61014;BME280;46899;47.542;19.082;2023-01-30T05:02:10;100802.38;;;-5.22;100.00
61014;BME280;46899;47.542;19.082;2023-01-30T05:05:13;100797.91;;;-5.29;100.00
61014;BME280;46899;47.542;19.082;2023-01-30T05:08:16;100800.06;;;-5.39;100.00
61014;BME280;46899;47.542;19.082;2023-01-30T05:11:21;100799.97;;;-5.42;100.00
61014;BME280;46899;47.542;19.082;2023-01-30T05:14:24;100793.06;;;-5.46;100.00
61014;BME280;46899;47.542;19.082;2023-01-30T05:17:26;100799.63;;;-5.51;100.00
61014;BME280;46899;47.542;19.082;2023-01-30T05:20:29;100794.66;;;-5.48;100.00
61014;BME280;46899;47.542;19.082;2023-01-30T05:23:32;100798.81;;;-5.50;100.00
61014;BME280;46899;47.542;19.082;2023-01-30T05:26:34;100796.84;;;-5.58;100.00
61014;BME280;46899;47.542;19.082;2023-01-30T05:29:37;100796.19;;;-5.53;100.00
61014;BME280;46899;47.542;19.082;2023-01-30T05:32:40;100789.25;;;-5.58;100.00
61014;BME280;46899;47.542;19.082;2023-01-30T05:35:46;100793.53;;;-5.57;100.00
61014;BME280;46899;47.542;19.082;2023-01-30T05:38:49;100779.87;;;-5.60;100.00
61014;BME280;46899;47.542;19.082;2023-01-30T05:41:52;100781.56;;;-5.61;100.00
61014;BME280;46899;47.542;19.082;2023-01-30T05:44:54;100784.84;;;-5.63;100.00
61014;BME280;46899;47.542;19.082;2023-01-30T05:47:57;100780.53;;;-5.66;100.00
61014;BME280;46899;47.542;19.082;2023-01-30T05:51:02;100781.38;;;-5.65;100.00
61014;BME280;46899;47.542;19.082;2023-01-30T05:54:05;100778.91;;;-5.64;100.00
61014;BME280;46899;47.542;19.082;2023-01-30T05:57:07;100779.69;;;-5.65;100.00
61014;BME280;46899;47.542;19.082;2023-01-30T06:00:10;100781.44;;;-5.64;100.00
61014;BME280;46899;47.542;19.082;2023-01-30T06:03:13;100782.63;;;-5.54;100.00
61014;BME280;46899;47.542;19.082;2023-01-30T06:06:16;100783.50;;;-5.53;100.00
61014;BME280;46899;47.542;19.082;2023-01-30T06:09:18;100787.28;;;-5.42;100.00
61014;BME280;46899;47.542;19.082;2023-01-30T06:12:21;100784.94;;;-5.36;100.00
61014;BME280;46899;47.542;19.082;2023-01-30T06:15:23;100780.13;;;-5.30;100.00
61014;BME280;46899;47.542;19.082;2023-01-30T06:18:26;100782.53;;;-5.33;100.00
61014;BME280;46899;47.542;19.082;2023-01-30T06:21:29;100777.94;;;-5.20;100.00
61014;BME280;46899;47.542;19.082;2023-01-30T06:24:32;100774.53;;;-5.20;100.00
61014;BME280;46899;47.542;19.082;2023-01-30T06:27:34;100778.81;;;-5.19;100.00
61014;BME280;46899;47.542;19.082;2023-01-30T06:30:37;100779.72;;;-4.92;100.00
61014;BME280;46899;47.542;19.082;2023-01-30T06:33:40;100794.94;;;-4.92;100.00
61014;BME280;46899;47.542;19.082;2023-01-30T06:36:42;100785.78;;;-4.89;100.00
61014;BME280;46899;47.542;19.082;2023-01-30T06:39:45;100774.44;;;-4.73;100.00
61014;BME280;46899;47.542;19.082;2023-01-30T06:42:48;100770.69;;;-4.59;100.00
61014;BME280;46899;47.542;19.082;2023-01-30T06:45:51;100762.94;;;-4.37;100.00
61014;BME280;46899;47.542;19.082;2023-01-30T06:48:53;100761.38;;;-4.05;100.00
61014;BME280;46899;47.542;19.082;2023-01-30T06:51:56;100764.91;;;-3.72;100.00
61014;BME280;46899;47.542;19.082;2023-01-30T06:54:58;100763.44;;;-3.34;100.00
61014;BME280;46899;47.542;19.082;2023-01-30T07:01:04;100759.28;;;-2.66;100.00
61014;BME280;46899;47.542;19.082;2023-01-30T07:04:07;100752.25;;;-2.41;100.00
61014;BME280;46899;47.542;19.082;2023-01-30T07:07:09;100755.22;;;-2.21;100.00
61014;BME280;46899;47.542;19.082;2023-01-30T07:10:12;100750.75;;;-1.94;100.00
61014;BME280;46899;47.542;19.082;2023-01-30T07:13:15;100747.59;;;-1.82;100.00
61014;BME280;46899;47.542;19.082;2023-01-30T07:16:18;100755.31;;;-1.79;100.00
61014;BME280;46899;47.542;19.082;2023-01-30T07:19:21;100751.47;;;-1.61;100.00
61014;BME280;46899;47.542;19.082;2023-01-30T07:22:23;100743.97;;;-1.52;100.00
61014;BME280;46899;47.542;19.082;2023-01-30T07:25:27;100749.97;;;-1.50;100.00
61014;BME280;46899;47.542;19.082;2023-01-30T07:28:29;100745.69;;;-1.51;100.00
61014;BME280;46899;47.542;19.082;2023-01-30T07:31:32;100739.28;;;-1.32;100.00
61014;BME280;46899;47.542;19.082;2023-01-30T07:34:35;100744.47;;;-1.27;100.00
61014;BME280;46899;47.542;19.082;2023-01-30T07:37:37;100736.91;;;-1.21;100.00
61014;BME280;46899;47.542;19.082;2023-01-30T07:40:40;100744.63;;;-1.18;100.00
61014;BME280;46899;47.542;19.082;2023-01-30T07:43:42;100745.97;;;-0.91;100.00
61014;BME280;46899;47.542;19.082;2023-01-30T07:47:07;100740.28;;;-0.75;99.01
61014;BME280;46899;47.542;19.082;2023-01-30T07:50:10;100740.28;;;-0.75;99.01
61014;BME280;46899;47.542;19.082;2023-01-30T07:53:14;100729.41;;;-0.63;96.46
61014;BME280;46899;47.542;19.082;2023-01-30T07:56:17;100725.63;;;-0.34;95.00
61014;BME280;46899;47.542;19.082;2023-01-30T07:59:20;100737.25;;;-0.51;95.63
61014;BME280;46899;47.542;19.082;2023-01-30T08:02:23;100731.91;;;-0.11;94.83
61014;BME280;46899;47.542;19.082;2023-01-30T08:05:26;100730.12;;;-0.16;95.18
61014;BME280;46899;47.542;19.082;2023-01-30T08:08:29;100733.66;;;-0.07;93.26
61014;BME280;46899;47.542;19.082;2023-01-30T08:11:32;100731.44;;;0.16;92.15
61014;BME280;46899;47.542;19.082;2023-01-30T08:14:34;100706.00;;;0.28;92.67
61014;BME280;46899;47.542;19.082;2023-01-30T08:17:37;100697.87;;;0.65;90.75
61014;BME280;46899;47.542;19.082;2023-01-30T08:20:39;100669.59;;;0.55;91.24
61014;BME280;46899;47.542;19.082;2023-01-30T08:23:44;100651.59;;;0.46;92.26
61014;BME280;46899;47.542;19.082;2023-01-30T08:26:46;100647.66;;;0.80;91.96
61014;BME280;46899;47.542;19.082;2023-01-30T08:29:49;100646.87;;;0.87;92.65
61014;BME280;46899;47.542;19.082;2023-01-30T08:32:59;100646.84;;;0.85;92.73
61014;BME280;46899;47.542;19.082;2023-01-30T08:36:01;100644.56;;;1.17;91.82
61014;BME280;46899;47.542;19.082;2023-01-30T08:39:04;100644.66;;;1.30;90.01
61014;BME280;46899;47.542;19.082;2023-01-30T08:42:06;100653.34;;;1.54;88.02
61014;BME280;46899;47.542;19.082;2023-01-30T08:45:10;100653.41;;;1.63;88.01
61014;BME280;46899;47.542;19.082;2023-01-30T08:48:12;100646.66;;;1.74;87.63
61014;BME280;46899;47.542;19.082;2023-01-30T08:51:15;100642.44;;;1.91;86.48
61014;BME280;46899;47.542;19.082;2023-01-30T08:54:18;100645.88;;;1.94;84.99
61014;BME280;46899;47.542;19.082;2023-01-30T08:57:21;100641.59;;;1.86;86.13
61014;BME280;46899;47.542;19.082;2023-01-30T09:00:23;100646.53;;;1.53;86.59
61014;BME280;46899;47.542;19.082;2023-01-30T09:03:26;100649.91;;;1.52;87.40
61014;BME280;46899;47.542;19.082;2023-01-30T09:06:29;100651.69;;;1.62;87.32
61014;BME280;46899;47.542;19.082;2023-01-30T09:09:31;100648.19;;;1.48;87.04
61014;BME280;46899;47.542;19.082;2023-01-30T09:12:34;100647.47;;;1.71;88.22
61014;BME280;46899;47.542;19.082;2023-01-30T09:15:40;100634.63;;;1.67;88.04
61014;BME280;46899;47.542;19.082;2023-01-30T09:18:43;100637.13;;;1.55;89.17
61014;BME280;46899;47.542;19.082;2023-01-30T09:21:47;100628.69;;;1.75;88.48
61014;BME280;46899;47.542;19.082;2023-01-30T09:24:50;100622.81;;;1.93;88.72
61014;BME280;46899;47.542;19.082;2023-01-30T09:27:52;100619.41;;;2.12;87.05
61014;BME280;46899;47.542;19.082;2023-01-30T09:30:56;100604.00;;;2.00;88.31
61014;BME280;46899;47.542;19.082;2023-01-30T09:33:58;100615.16;;;2.11;87.11
61014;BME280;46899;47.542;19.082;2023-01-30T09:37:01;100609.22;;;2.23;86.34
61014;BME280;46899;47.542;19.082;2023-01-30T09:40:12;100596.34;;;2.11;86.36
61014;BME280;46899;47.542;19.082;2023-01-30T09:55:39;100569.00;;;2.34;85.46
61014;BME280;46899;47.542;19.082;2023-01-30T09:58:49;100564.75;;;2.28;85.40
61014;BME280;46899;47.542;19.082;2023-01-30T10:01:55;100561.19;;;1.87;87.52
61014;BME280;46899;47.542;19.082;2023-01-30T10:05:01;100557.81;;;1.97;88.11
61014;BME280;46899;47.542;19.082;2023-01-30T10:08:15;100556.97;;;2.05;87.72
61014;BME280;46899;47.542;19.082;2023-01-30T10:17:44;100536.50;;;2.46;85.95
61014;BME280;46899;47.542;19.082;2023-01-30T10:21:01;100532.22;;;2.94;82.64
61014;BME280;46899;47.542;19.082;2023-01-30T10:27:28;100514.03;;;3.54;79.36
61014;BME280;46899;47.542;19.082;2023-01-30T10:30:32;100508.97;;;3.39;79.35
61014;BME280;46899;47.542;19.082;2023-01-30T10:33:35;100504.59;;;3.56;78.74
61014;BME280;46899;47.542;19.082;2023-01-30T10:40:17;100485.72;;;3.63;78.17
61014;BME280;46899;47.542;19.082;2023-01-30T10:43:26;100473.56;;;3.86;77.46
61014;BME280;46899;47.542;19.082;2023-01-30T10:49:54;100459.66;;;4.14;75.90
61014;BME280;46899;47.542;19.082;2023-01-30T10:53:07;100446.03;;;4.02;75.79
61014;BME280;46899;47.542;19.082;2023-01-30T10:59:20;100430.09;;;3.39;79.99
61014;BME280;46899;47.542;19.082;2023-01-30T11:02:28;100428.38;;;3.37;79.66
61014;BME280;46899;47.542;19.082;2023-01-30T11:05:41;100421.56;;;3.39;79.11
61014;BME280;46899;47.542;19.082;2023-01-30T11:08:45;100413.94;;;3.18;80.20
61014;BME280;46899;47.542;19.082;2023-01-30T11:11:52;100402.78;;;3.17;80.73
61014;BME280;46899;47.542;19.082;2023-01-30T11:14:57;100397.63;;;3.19;79.78
61014;BME280;46899;47.542;19.082;2023-01-30T11:18:03;100393.28;;;3.31;80.27
61014;BME280;46899;47.542;19.082;2023-01-30T11:21:28;100380.38;;;3.40;79.54
61014;BME280;46899;47.542;19.082;2023-01-30T11:24:44;100389.66;;;3.66;78.40
61014;BME280;46899;47.542;19.082;2023-01-30T11:27:55;100374.94;;;3.84;77.08
61014;BME280;46899;47.542;19.082;2023-01-30T11:30:59;100363.06;;;3.68;77.26
61014;BME280;46899;47.542;19.082;2023-01-30T11:34:10;100368.22;;;3.67;77.06
61014;BME280;46899;47.542;19.082;2023-01-30T11:37:21;100360.50;;;3.65;76.86
61014;BME280;46899;47.542;19.082;2023-01-30T11:40:27;100357.28;;;3.33;78.13
61014;BME280;46899;47.542;19.082;2023-01-30T11:43:31;100346.03;;;3.52;78.45
61014;BME280;46899;47.542;19.082;2023-01-30T11:46:35;100332.31;;;3.50;78.42
61014;BME280;46899;47.542;19.082;2023-01-30T11:49:40;100328.87;;;3.56;77.66
61014;BME280;46899;47.542;19.082;2023-01-30T11:52:52;100331.47;;;3.50;78.29
61014;BME280;46899;47.542;19.082;2023-01-30T11:55:56;100328.87;;;3.51;79.09
61014;BME280;46899;47.542;19.082;2023-01-30T12:02:30;100324.69;;;3.38;80.67
61014;BME280;46899;47.542;19.082;2023-01-30T12:05:35;100327.34;;;3.23;80.08
61014;BME280;46899;47.542;19.082;2023-01-30T12:08:43;100312.91;;;3.04;82.67
61014;BME280;46899;47.542;19.082;2023-01-30T12:11:46;100312.06;;;2.97;82.36
61014;BME280;46899;47.542;19.082;2023-01-30T12:14:48;100311.25;;;2.91;82.11
61014;BME280;46899;47.542;19.082;2023-01-30T12:24:12;100295.03;;;2.73;84.67
61014;BME280;46899;47.542;19.082;2023-01-30T12:27:21;100271.97;;;2.67;85.35
61014;BME280;46899;47.542;19.082;2023-01-30T12:30:34;100262.56;;;2.63;86.02
61014;BME280;46899;47.542;19.082;2023-01-30T12:33:38;100241.19;;;2.60;85.24
61014;BME280;46899;47.542;19.082;2023-01-30T12:36:46;100229.22;;;2.59;86.42
61014;BME280;46899;47.542;19.082;2023-01-30T12:46:14;100222.44;;;2.38;88.22
61014;BME280;46899;47.542;19.082;2023-01-30T12:49:45;100219.00;;;2.44;89.45
61014;BME280;46899;47.542;19.082;2023-01-30T13:05:28;100228.41;;;2.43;93.62
61014;BME280;46899;47.542;19.082;2023-01-30T13:11:49;100207.94;;;2.30;94.87
61014;BME280;46899;47.542;19.082;2023-01-30T13:27:55;100173.72;;;2.28;96.04
61014;BME280;46899;47.542;19.082;2023-01-30T13:30:59;100173.81;;;2.08;97.16
61014;BME280;46899;47.542;19.082;2023-01-30T13:34:24;100174.66;;;2.10;96.97
61014;BME280;46899;47.542;19.082;2023-01-30T13:37:28;100170.38;;;2.14;97.05
61014;BME280;46899;47.542;19.082;2023-01-30T13:40:37;100177.19;;;2.15;96.61
61014;BME280;46899;47.542;19.082;2023-01-30T13:43:42;100171.16;;;2.32;96.30
61014;BME280;46899;47.542;19.082;2023-01-30T13:46:46;100178.00;;;2.27;96.05
61014;BME280;46899;47.542;19.082;2023-01-30T13:53:38;100177.84;;;2.54;93.52
61014;BME280;46899;47.542;19.082;2023-01-30T13:59:50;100161.53;;;2.64;91.72
61014;BME280;46899;47.542;19.082;2023-01-30T14:09:28;100144.44;;;2.63;90.94
61014;BME280;46899;47.542;19.082;2023-01-30T14:15:40;100147.03;;;2.60;90.31
61014;BME280;46899;47.542;19.082;2023-01-30T14:18:54;100147.81;;;2.70;90.32
61014;BME280;46899;47.542;19.082;2023-01-30T14:21:58;100151.19;;;2.80;89.95
61014;BME280;46899;47.542;19.082;2023-01-30T14:31:44;100166.56;;;2.83;90.32
61014;BME280;46899;47.542;19.082;2023-01-30T14:38:07;100174.28;;;2.83;92.32
61014;BME280;46899;47.542;19.082;2023-01-30T14:44:53;100171.72;;;2.81;94.88
61014;BME280;46899;47.542;19.082;2023-01-30T14:47:38;100165.81;;;2.68;96.52
61014;BME280;46899;47.542;19.082;2023-01-30T14:50:47;100171.91;;;2.51;98.83
61014;BME280;46899;47.542;19.082;2023-01-30T14:54:18;100177.97;;;2.38;100.00
61014;BME280;46899;47.542;19.082;2023-01-30T14:57:26;100167.72;;;2.32;100.00
61014;BME280;46899;47.542;19.082;2023-01-30T15:00:33;100168.63;;;2.20;100.00
61014;BME280;46899;47.542;19.082;2023-01-30T15:03:39;100166.97;;;2.08;100.00
61014;BME280;46899;47.542;19.082;2023-01-30T15:06:43;100163.56;;;2.00;100.00
61014;BME280;46899;47.542;19.082;2023-01-30T15:09:54;100167.00;;;1.98;100.00
61014;BME280;46899;47.542;19.082;2023-01-30T15:19:54;100172.16;;;1.87;100.00
61014;BME280;46899;47.542;19.082;2023-01-30T15:33:34;100153.34;;;1.93;100.00
61014;BME280;46899;47.542;19.082;2023-01-30T15:36:34;100145.69;;;1.81;100.00
61014;BME280;46899;47.542;19.082;2023-01-30T15:39:36;100163.63;;;1.84;100.00
61014;BME280;46899;47.542;19.082;2023-01-30T15:46:09;100172.19;;;1.78;100.00
61014;BME280;46899;47.542;19.082;2023-01-30T15:52:39;100175.63;;;1.74;100.00
61014;BME280;46899;47.542;19.082;2023-01-30T15:55:46;100164.53;;;1.69;100.00
61014;BME280;46899;47.542;19.082;2023-01-30T15:58:51;100173.06;;;1.61;100.00
61014;BME280;46899;47.542;19.082;2023-01-30T16:01:59;100167.13;;;1.47;100.00
61014;BME280;46899;47.542;19.082;2023-01-30T16:05:03;100173.97;;;1.45;100.00
61014;BME280;46899;47.542;19.082;2023-01-30T16:08:11;100181.66;;;1.48;100.00
61014;BME280;46899;47.542;19.082;2023-01-30T16:11:35;100192.75;;;1.45;100.00
61014;BME280;46899;47.542;19.082;2023-01-30T16:14:38;100182.50;;;1.39;100.00
61014;BME280;46899;47.542;19.082;2023-01-30T16:17:40;100172.25;;;1.42;100.00
61014;BME280;46899;47.542;19.082;2023-01-30T16:20:45;100180.81;;;1.43;100.00
61014;BME280;46899;47.542;19.082;2023-01-30T16:27:05;100183.37;;;1.35;100.00
61014;BME280;46899;47.542;19.082;2023-01-30T16:30:09;100190.19;;;1.34;100.00
61014;BME280;46899;47.542;19.082;2023-01-30T16:33:14;100194.47;;;1.32;100.00
61014;BME280;46899;47.542;19.082;2023-01-30T16:39:38;100207.28;;;1.28;100.00
61014;BME280;46899;47.542;19.082;2023-01-30T16:42:52;100203.00;;;1.25;100.00
61014;BME280;46899;47.542;19.082;2023-01-30T16:52:27;100198.75;;;1.14;100.00
61014;BME280;46899;47.542;19.082;2023-01-30T16:55:32;100198.75;;;1.09;100.00
61014;BME280;46899;47.542;19.082;2023-01-30T16:58:36;100187.66;;;1.06;100.00
61014;BME280;46899;47.542;19.082;2023-01-30T17:01:40;100186.78;;;0.87;100.00
61014;BME280;46899;47.542;19.082;2023-01-30T17:04:43;100177.38;;;0.95;100.00
61014;BME280;46899;47.542;19.082;2023-01-30T17:07:46;100182.53;;;1.01;100.00
61014;BME280;46899;47.542;19.082;2023-01-30T17:10:50;100189.34;;;0.98;100.00
61014;BME280;46899;47.542;19.082;2023-01-30T17:14:37;100185.94;;;1.03;100.00
61014;BME280;46899;47.542;19.082;2023-01-30T17:17:20;100174.84;;;1.07;100.00
61014;BME280;46899;47.542;19.082;2023-01-30T17:20:26;100179.09;;;1.16;100.00
61014;BME280;46899;47.542;19.082;2023-01-30T17:23:32;100177.38;;;1.30;100.00
61014;BME280;46899;47.542;19.082;2023-01-30T17:26:35;100173.09;;;1.49;100.00
61014;BME280;46899;47.542;19.082;2023-01-30T17:29:41;100165.41;;;1.55;100.00
61014;BME280;46899;47.542;19.082;2023-01-30T17:32:47;100159.41;;;1.65;100.00
61014;BME280;46899;47.542;19.082;2023-01-30T17:35:51;100161.94;;;1.75;100.00
61014;BME280;46899;47.542;19.082;2023-01-30T17:38:55;100177.31;;;1.77;100.00
61014;BME280;46899;47.542;19.082;2023-01-30T17:41:59;100179.00;;;1.87;100.00
61014;BME280;46899;47.542;19.082;2023-01-30T17:45:02;100175.56;;;1.95;100.00
61014;BME280;46899;47.542;19.082;2023-01-30T17:48:05;100168.69;;;2.00;100.00
61014;BME280;46899;47.542;19.082;2023-01-30T17:51:09;100172.13;;;2.02;100.00
61014;BME280;46899;47.542;19.082;2023-01-30T17:54:17;100164.41;;;2.07;100.00
61014;BME280;46899;47.542;19.082;2023-01-30T17:57:21;100162.69;;;2.11;100.00
61014;BME280;46899;47.542;19.082;2023-01-30T18:00:26;100155.00;;;2.04;100.00
61014;BME280;46899;47.542;19.082;2023-01-30T18:03:31;100167.81;;;2.09;100.00
61014;BME280;46899;47.542;19.082;2023-01-30T18:06:33;100170.41;;;2.06;100.00
61014;BME280;46899;47.542;19.082;2023-01-30T18:09:38;100176.34;;;2.13;100.00
61014;BME280;46899;47.542;19.082;2023-01-30T18:12:41;100172.91;;;2.20;100.00
61014;BME280;46899;47.542;19.082;2023-01-30T18:15:44;100177.16;;;2.25;100.00
61014;BME280;46899;47.542;19.082;2023-01-30T18:18:46;100183.97;;;2.34;100.00
61014;BME280;46899;47.542;19.082;2023-01-30T18:21:49;100180.53;;;2.39;100.00
61014;BME280;46899;47.542;19.082;2023-01-30T18:24:52;100177.09;;;2.37;100.00
61014;BME280;46899;47.542;19.082;2023-01-30T18:27:55;100172.78;;;2.45;100.00
61014;BME280;46899;47.542;19.082;2023-01-30T18:30:58;100174.53;;;2.37;100.00
61014;BME280;46899;47.542;19.082;2023-01-30T18:34:01;100172.78;;;2.45;100.00
61014;BME280;46899;47.542;19.082;2023-01-30T18:37:04;100174.53;;;2.37;100.00
61014;BME280;46899;47.542;19.082;2023-01-30T18:40:07;100188.22;;;2.36;100.00
61014;BME280;46899;47.542;19.082;2023-01-30T18:43:10;100189.13;;;2.31;100.00
61014;BME280;46899;47.542;19.082;2023-01-30T18:46:14;100187.41;;;2.33;100.00
61014;BME280;46899;47.542;19.082;2023-01-30T18:49:17;100183.13;;;2.29;100.00
61014;BME280;46899;47.542;19.082;2023-01-30T18:52:20;100186.53;;;2.32;100.00
61014;BME280;46899;47.542;19.082;2023-01-30T18:55:23;100183.09;;;2.33;100.00